首页
METAR-TAF:

METAR-TAF

机场 :

克拉科夫, 波兰

纬度: 50-05N, 经度: 019-48E, 海拔: 237米

当前天气观测

该预报发布于38分钟前的03:30 UTC
风速1节,风向多变
温度 2°C
湿度 93%
气压 1027 hPa
能見度: 3500
轻雾

METAR: EPKK 260330Z VRB01KT 3500 BR NSC 02/01 Q1027

时间: 05:08 (04:08 UTC)

预报

该预报发布于1小时和38分钟前的02:30 UTC
预报有效从26日的 03点(UTC)到 27日的 03点(UTC)
风速2节,风向多变
能見度: 5000
轻雾
短暂存在
从 26日的 03点(UTC)到 26日的 07点(UTC)
能見度: 2500
轻雾
几率 40% :
短暂存在
从 26日的 03点(UTC)到 26日的 06点(UTC)
能見度: 0800
成为
从 26日的 12点(UTC)到 26日的 15点(UTC)
风速12节,风向西
成为
从 26日的 15点(UTC)到 26日的 18点(UTC)
能見度: 4000
多云层高于1400英尺
雨, 轻雾
短暂存在
从 26日的 15点(UTC)到 26日的 22点(UTC)
风速16节,风向西北,有时为27节阵风
几率 40% :
短暂存在
从 26日的 15点(UTC)到 26日的 22点(UTC)
能見度: 2500
多云层高于1400英尺, 塔状积云.
阵雨
成为
从 26日的 19点(UTC)到 26日的 22点(UTC)
能見度: 6000
多云层高于2000英尺
小雨
几率 40% :
短暂存在
从 26日的 22点(UTC)到 27日的 03点(UTC)
能見度: 4000
多云层高于1000英尺
雨, 轻雾

TAF: EPKK 260230Z 2603/2703 VRB02KT 5000 BR NSC TEMPO 2603/2607 2500 BR PROB40 TEMPO 2603/2606 0800 FG BECMG 2612/2615 28012KT BECMG 2615/2618 4000 RA BR BKN014 TEMPO 2615/2622 32016G27KT PROB40 TEMPO 2615/2622 2500 SHRA BKN014TCU BECMG 2619/2622 6000 -RA BKN020 PROB40 TEMPO 2622/2703 4000 RA BR BKN010

超过4000个机场的气象观测和天气预报(METAR&TAF报告)。

可查询的气象台以黄色和红色小点在地图上表示。

将鼠标移到小点上方,可查看气象台名称。

然后点击查看天气观测和预报。

如需切换地图:点击带黑十字的绿色按钮放大地图;点击带横线的绿色按钮缩小地图;或者点击绿色箭头查看邻近地区的地图。


METAR-TAF: